Time;durP1;ratioP1;P1;durP2;ratioP2;P2;SDS_P1;SDS_P2;PMS_P1;PMS_P2;Temp;Humidity;BMP_temperature;BMP_pressure;BME280_temperature;BME280_humidity;BME280_pressure;Samples;Min_cycle;Max_cycle;Signal;HPM_P1;HPM_P2
2022/09/10 00:01:58;;;;;;;3.42;0.93;;;;;;;15.79;100.00;100181.88;5177836;28;20022;-75
2022/09/10 00:04:29;;;;;;;3.90;0.80;;;;;;;15.86;100.00;100180.56;5180665;28;20026;-75
2022/09/10 00:06:59;;;;;;;2.78;0.73;;;;;;;15.85;100.00;100184.97;5177562;28;20022;-75
2022/09/10 00:09:29;;;;;;;2.67;0.60;;;;;;;15.96;100.00;100182.53;5176150;28;20025;-75
2022/09/10 00:12:00;;;;;;;4.65;0.93;;;;;;;15.96;100.00;100174.63;5179517;28;20036;-75
2022/09/10 00:14:30;;;;;;;4.97;0.80;;;;;;;15.95;100.00;100178.19;5180549;28;20387;-75
2022/09/10 00:17:00;;;;;;;1.80;0.70;;;;;;;15.98;100.00;100190.31;5161871;28;20018;-75
2022/09/10 00:19:31;;;;;;;2.92;0.93;;;;;;;15.93;100.00;100188.00;5177648;28;20557;-75
2022/09/10 00:22:04;;;;;;;2.92;0.90;;;;;;;15.79;100.00;100193.28;5180699;28;20022;-75
2022/09/10 00:24:35;;;;;;;2.92;0.80;;;;;;;15.64;100.00;100199.50;5135648;28;20125;-74
2022/09/10 00:27:05;;;;;;;5.07;1.17;;;;;;;15.40;100.00;100195.72;5168351;28;20097;-74
2022/09/10 00:29:37;;;;;;;4.20;1.00;;;;;;;15.44;100.00;100183.22;5178471;28;20026;-74
2022/09/10 00:32:07;;;;;;;3.15;0.82;;;;;;;15.51;100.00;100182.75;5174936;28;20102;-74
2022/09/10 00:34:37;;;;;;;3.22;0.88;;;;;;;15.51;100.00;100190.66;5180394;28;20026;-74
2022/09/10 00:37:07;;;;;;;4.53;1.17;;;;;;;15.35;100.00;100195.16;5176514;28;20030;-73
2022/09/10 00:39:38;;;;;;;4.93;1.15;;;;;;;15.14;100.00;100185.91;5179252;28;20030;-74
2022/09/10 00:42:10;;;;;;;2.75;0.70;;;;;;;15.17;100.00;100185.72;5178302;28;20062;-74
2022/09/10 00:44:40;;;;;;;6.25;1.02;;;;;;;15.25;100.00;100188.75;5176603;28;20061;-75
2022/09/10 00:47:22;;;;;;;5.47;1.00;;;;;;;15.28;100.00;100188.56;5177738;28;20068;-74
2022/09/10 00:50:00;;;;;;;2.30;0.80;;;;;;;15.36;100.00;100185.50;5179908;28;20052;-75
2022/09/10 00:52:33;;;;;;;3.30;0.90;;;;;;;15.33;100.00;100181.25;5172571;28;20022;-75
2022/09/10 00:55:03;;;;;;;3.78;1.00;;;;;;;15.39;100.00;100180.03;5179901;28;20119;-75
2022/09/10 00:57:34;;;;;;;2.25;0.75;;;;;;;15.43;100.00;100187.66;5178029;28;20488;-74
2022/09/10 01:00:09;;;;;;;3.97;0.93;;;;;;;15.46;100.00;100182.22;5178803;28;20018;-75
2022/09/10 01:02:40;;;;;;;3.53;0.70;;;;;;;15.56;100.00;100191.22;5177147;28;20404;-74
2022/09/10 01:05:11;;;;;;;1.65;0.57;;;;;;;15.63;100.00;100184.63;5179548;28;20086;-74
2022/09/10 01:07:42;;;;;;;1.77;0.50;;;;;;;15.74;100.00;100190.06;5175772;28;20068;-74
2022/09/10 01:10:39;;;;;;;2.38;0.50;;;;;;;15.80;100.00;100192.34;5174805;28;20026;-75
2022/09/10 01:13:24;;;;;;;5.65;0.82;;;;;;;15.78;100.00;100188.97;5177942;28;20121;-74
2022/09/10 01:16:27;;;;;;;3.37;1.00;;;;;;;15.75;100.00;100183.88;5171326;28;20167;-75
2022/09/10 01:21:53;;;;;;;3.15;0.70;;;;;;;15.76;100.00;100195.25;5197391;28;20076;-77
2022/09/10 01:24:49;;;;;;;2.38;0.63;;;;;;;15.61;100.00;100194.44;5203589;28;20033;-78
2022/09/10 01:27:30;;;;;;;5.80;0.98;;;;;;;15.70;100.00;100193.84;5188783;28;20582;-78
2022/09/10 01:30:07;;;;;;;3.67;0.65;;;;;;;15.62;100.00;100198.75;5205473;28;20575;-77
2022/09/10 01:32:47;;;;;;;3.20;0.60;;;;;;;15.51;100.00;100195.94;5209170;28;20485;-77
2022/09/10 01:35:25;;;;;;;1.83;0.50;;;;;;;15.39;100.00;100201.09;5190221;28;20087;-77
2022/09/10 01:38:00;;;;;;;4.30;0.65;;;;;;;15.32;100.00;100205.06;5194544;28;20402;-77
2022/09/10 01:40:32;;;;;;;2.00;0.70;;;;;;;15.41;100.00;100200.09;5206559;28;20501;-76
2022/09/10 01:43:08;;;;;;;2.75;0.63;;;;;;;15.45;100.00;100201.59;5210873;28;20033;-77
2022/09/10 01:45:51;;;;;;;2.15;0.60;;;;;;;15.52;100.00;100197.63;5192235;28;20028;-77
2022/09/10 01:48:33;;;;;;;4.53;0.68;;;;;;;15.53;100.00;100199.31;5209107;28;20488;-77
2022/09/10 01:51:19;;;;;;;2.50;0.50;;;;;;;15.43;100.00;100213.16;5199872;28;20848;-77
2022/09/10 01:54:44;;;;;;;1.60;0.60;;;;;;;15.52;100.00;100213.44;5207178;28;20481;-77
2022/09/10 01:57:51;;;;;;;3.25;0.60;;;;;;;15.54;100.00;100213.34;5113998;29;20039;-77
2022/09/10 02:00:23;;;;;;;3.50;0.60;;;;;;;15.58;100.00;100214.84;5192891;28;20047;-77
2022/09/10 02:03:03;;;;;;;1.83;0.50;;;;;;;15.65;100.00;100208.25;5202506;28;20021;-77
2022/09/10 02:05:36;;;;;;;2.35;0.60;;;;;;;15.72;100.00;100213.03;5208467;28;20037;-77
2022/09/10 02:08:14;;;;;;;2.83;0.68;;;;;;;15.75;100.00;100207.59;5207721;28;20478;-74
2022/09/10 02:10:53;;;;;;;3.78;0.75;;;;;;;15.69;100.00;100202.69;5211654;28;20032;-77
2022/09/10 02:13:23;;;;;;;1.52;0.60;;;;;;;15.79;100.00;100203.81;5211592;28;20055;-76
2022/09/10 02:15:55;;;;;;;2.20;0.60;;;;;;;15.84;100.00;100201.75;5203044;28;20434;-77
2022/09/10 02:18:26;;;;;;;1.10;0.50;;;;;;;15.90;100.00;100201.34;5191065;28;20578;-77
2022/09/10 02:20:58;;;;;;;3.83;0.68;;;;;;;15.87;100.00;100198.06;5207542;28;20112;-77
2022/09/10 02:23:45;;;;;;;4.07;0.98;;;;;;;15.98;100.00;100201.72;5209455;28;20040;-77
2022/09/10 02:26:15;;;;;;;3.15;0.63;;;;;;;15.98;100.00;100204.34;5209014;28;20040;-77
2022/09/10 02:28:48;;;;;;;2.10;0.60;;;;;;;15.98;100.00;100199.09;5206454;28;20033;-77
2022/09/10 02:31:18;;;;;;;2.58;0.90;;;;;;;15.99;100.00;100203.41;5189806;28;20350;-77
2022/09/10 02:33:50;;;;;;;2.85;0.73;;;;;;;16.02;100.00;100205.00;5209861;28;20040;-77
2022/09/10 02:36:20;;;;;;;4.60;0.80;;;;;;;16.14;100.00;100204.22;5206282;28;20385;-77
2022/09/10 02:38:51;;;;;;;3.40;0.50;;;;;;;16.10;100.00;100223.81;5208908;28;20175;-77
2022/09/10 02:41:23;;;;;;;3.80;0.80;;;;;;;15.97;100.00;100212.34;5209147;28;20025;-77
2022/09/10 02:43:54;;;;;;;2.42;0.60;;;;;;;15.98;100.00;100201.72;5209389;28;20033;-77
2022/09/10 02:46:24;;;;;;;2.95;0.68;;;;;;;16.01;100.00;100204.16;5202011;28;20517;-77
2022/09/10 02:48:54;;;;;;;3.55;0.70;;;;;;;15.98;100.00;100209.63;5209242;28;20028;-77
2022/09/10 02:51:25;;;;;;;3.58;0.60;;;;;;;15.98;100.00;100200.84;5209277;28;20392;-77
2022/09/10 02:53:55;;;;;;;3.67;0.70;;;;;;;15.92;100.00;100215.28;5209504;28;20135;-77
2022/09/10 02:56:25;;;;;;;4.95;0.80;;;;;;;15.94;100.00;100210.78;5213985;28;20029;-77
2022/09/10 02:58:55;;;;;;;2.70;0.60;;;;;;;16.11;100.00;100212.31;5208842;28;20029;-77
2022/09/10 03:01:26;;;;;;;3.25;0.60;;;;;;;16.24;100.00;100203.53;5212160;28;20021;-77
2022/09/10 03:03:59;;;;;;;2.90;0.90;;;;;;;16.06;100.00;100212.59;5214205;28;20036;-77
2022/09/10 03:06:30;;;;;;;3.55;0.70;;;;;;;16.05;100.00;100218.00;5210611;28;20041;-77
2022/09/10 03:09:01;;;;;;;2.95;0.70;;;;;;;16.06;100.00;100217.06;5212677;28;20023;-77
2022/09/10 03:11:31;;;;;;;4.03;0.95;;;;;;;16.03;100.00;100210.16;5214039;28;20021;-77
2022/09/10 03:14:02;;;;;;;2.08;0.60;;;;;;;15.91;100.00;100215.38;5212942;28;20498;-76
2022/09/10 03:16:32;;;;;;;3.67;0.68;;;;;;;16.00;100.00;100215.66;5212322;28;20482;-77
2022/09/10 03:19:02;;;;;;;3.78;0.90;;;;;;;16.02;100.00;100213.75;5191932;28;20037;-77
2022/09/10 03:21:33;;;;;;;4.38;0.70;;;;;;;15.99;100.00;100213.94;5212982;28;20040;-78
2022/09/10 03:24:03;;;;;;;2.13;0.60;;;;;;;15.95;100.00;100217.72;5212782;28;20039;-77
2022/09/10 03:26:33;;;;;;;3.40;0.75;;;;;;;15.84;100.00;100219.34;5211692;28;20121;-77
2022/09/10 03:29:04;;;;;;;4.05;0.75;;;;;;;15.90;100.00;100214.53;5210668;28;20415;-77
2022/09/10 03:31:35;;;;;;;2.03;0.63;;;;;;;15.89;100.00;100218.09;5211318;28;20032;-77
2022/09/10 03:34:05;;;;;;;2.53;0.70;;;;;;;15.80;100.00;100212.56;5212385;28;20692;-77
2022/09/10 03:36:35;;;;;;;1.60;0.50;;;;;;;15.92;100.00;100214.44;5210375;28;20037;-77
2022/09/10 03:39:06;;;;;;;3.70;0.75;;;;;;;15.90;100.00;100218.97;5211882;28;20027;-77
2022/09/10 03:41:36;;;;;;;4.35;0.80;;;;;;;15.90;100.00;100211.88;5214266;28;20021;-77
2022/09/10 03:44:06;;;;;;;2.83;0.60;;;;;;;15.98;100.00;100217.53;5212381;28;20029;-77
2022/09/10 03:46:37;;;;;;;3.97;0.85;;;;;;;15.96;100.00;100211.53;5210698;28;20021;-77
2022/09/10 03:49:08;;;;;;;3.40;0.98;;;;;;;16.02;100.00;100216.38;5211084;28;20022;-78
2022/09/10 03:51:38;;;;;;;5.10;0.90;;;;;;;16.06;100.00;100220.53;5212401;28;20026;-77
2022/09/10 03:54:09;;;;;;;2.13;0.60;;;;;;;16.15;100.00;100219.09;5211609;28;20422;-77
2022/09/10 03:56:39;;;;;;;2.85;0.65;;;;;;;16.05;100.00;100220.63;5209743;28;20045;-77
2022/09/10 03:59:12;;;;;;;2.28;0.73;;;;;;;16.06;100.00;100217.06;5211258;28;20025;-77
2022/09/10 04:01:42;;;;;;;3.95;0.90;;;;;;;16.09;100.00;100216.84;5211218;28;20036;-77
2022/09/10 04:04:13;;;;;;;3.08;0.70;;;;;;;15.99;100.00;100221.88;5211047;28;20033;-77
2022/09/10 04:06:44;;;;;;;2.60;0.60;;;;;;;15.98;100.00;100221.94;5192162;28;20402;-77
2022/09/10 04:09:14;;;;;;;3.75;0.73;;;;;;;15.79;100.00;100227.53;5210025;28;20043;-77
2022/09/10 04:11:44;;;;;;;2.08;0.60;;;;;;;15.73;100.00;100225.25;5214318;28;20029;-75
2022/09/10 04:14:15;;;;;;;4.18;0.70;;;;;;;15.88;100.00;100226.13;5212619;28;20769;-75
2022/09/10 04:16:45;;;;;;;5.72;2.20;;;;;;;15.95;100.00;100233.56;5209104;28;20033;-76
2022/09/10 04:19:15;;;;;;;4.15;1.25;;;;;;;15.91;100.00;100233.84;5210450;28;20029;-75
2022/09/10 04:21:46;;;;;;;3.78;0.93;;;;;;;15.93;100.00;100232.81;5177215;28;20399;-76
2022/09/10 04:24:16;;;;;;;6.22;0.90;;;;;;;15.90;100.00;100230.34;5212016;28;20119;-77
2022/09/10 04:26:47;;;;;;;2.05;0.70;;;;;;;15.84;100.00;100228.09;5208799;28;20173;-77
2022/09/10 04:29:17;;;;;;;1.58;0.75;;;;;;;15.90;100.00;100225.06;5211642;28;20061;-77
2022/09/10 04:31:49;;;;;;;2.92;0.80;;;;;;;15.74;100.00;100226.13;5192609;28;20029;-77
2022/09/10 04:34:21;;;;;;;1.83;0.60;;;;;;;15.71;100.00;100221.88;5209006;28;20045;-77
2022/09/10 04:36:52;;;;;;;2.80;1.00;;;;;;;15.49;100.00;100228.56;5194423;28;20037;-77
2022/09/10 04:39:22;;;;;;;3.20;0.90;;;;;;;15.41;100.00;100226.44;5207999;28;20495;-77
2022/09/10 04:41:53;;;;;;;2.03;0.70;;;;;;;15.44;100.00;100225.38;5213651;28;20021;-77
2022/09/10 04:44:24;;;;;;;4.00;0.80;;;;;;;15.52;100.00;100223.97;5212730;28;20090;-77
2022/09/10 04:46:55;;;;;;;5.22;0.93;;;;;;;15.40;100.00;100224.69;5203500;28;20027;-77
2022/09/10 04:49:25;;;;;;;3.03;0.88;;;;;;;15.40;100.00;100224.69;5208954;28;20113;-77
2022/09/10 04:51:55;;;;;;;2.83;0.60;;;;;;;15.42;100.00;100225.47;5212063;28;20542;-75
2022/09/10 04:54:26;;;;;;;2.85;0.80;;;;;;;15.40;100.00;100223.88;5211679;28;20029;-78
2022/09/10 04:56:56;;;;;;;3.85;0.98;;;;;;;15.38;100.00;100223.13;5207251;28;20037;-77
2022/09/10 04:59:26;;;;;;;3.10;0.95;;;;;;;15.36;100.00;100225.00;5211511;28;20029;-77
2022/09/10 05:01:57;;;;;;;2.92;1.00;;;;;;;15.30;100.00;100228.84;5209886;28;20475;-77
2022/09/10 05:04:27;;;;;;;4.20;0.98;;;;;;;15.24;100.00;100223.94;5208622;28;20043;-77
2022/09/10 05:06:57;;;;;;;4.57;1.27;;;;;;;15.20;100.00;100230.28;5211643;28;20385;-77
2022/09/10 05:09:30;;;;;;;3.08;0.65;;;;;;;15.23;100.00;100232.78;5207866;28;20029;-77
2022/09/10 05:12:01;;;;;;;2.20;0.73;;;;;;;15.33;100.00;100225.19;5212981;28;20474;-78
2022/09/10 05:14:32;;;;;;;2.85;0.68;;;;;;;15.48;100.00;100222.47;5211785;28;20024;-77
2022/09/10 05:17:04;;;;;;;2.92;0.70;;;;;;;15.51;100.00;100222.28;5208551;28;20478;-77
2022/09/10 05:19:34;;;;;;;3.58;0.90;;;;;;;15.54;100.00;100216.81;5192078;28;20033;-77
2022/09/10 05:22:05;;;;;;;3.30;0.60;;;;;;;15.67;100.00;100212.47;5211032;28;20345;-77
2022/09/10 05:24:36;;;;;;;3.50;0.80;;;;;;;15.66;100.00;100223.97;5210569;28;20115;-77
2022/09/10 05:27:06;;;;;;;2.60;0.88;;;;;;;15.70;100.00;100222.81;5190462;28;20108;-77
2022/09/10 05:29:36;;;;;;;2.60;0.90;;;;;;;15.75;100.00;100220.78;5189766;28;20051;-77
2022/09/10 05:32:08;;;;;;;4.07;0.80;;;;;;;15.83;100.00;100221.13;5209174;28;20401;-77
2022/09/10 05:34:38;;;;;;;3.03;1.00;;;;;;;15.91;100.00;100220.66;5205708;28;20036;-77
2022/09/10 05:37:10;;;;;;;5.07;0.95;;;;;;;15.97;100.00;100226.38;5206580;28;20029;-75
2022/09/10 05:39:41;;;;;;;2.33;0.80;;;;;;;15.99;100.00;100221.88;5202958;28;20068;-77
2022/09/10 05:42:11;;;;;;;4.55;0.90;;;;;;;16.09;100.00;100220.34;5204063;28;20026;-77
2022/09/10 05:44:42;;;;;;;1.35;0.63;;;;;;;16.18;100.00;100226.81;5202885;28;20041;-77
2022/09/10 05:47:12;;;;;;;7.13;0.82;;;;;;;16.19;100.00;100224.06;5206619;28;20095;-77
2022/09/10 05:49:44;;;;;;;3.25;1.00;;;;;;;16.38;100.00;100227.25;5211916;28;20029;-77
2022/09/10 05:52:15;;;;;;;4.88;0.82;;;;;;;16.62;100.00;100222.19;5181669;28;20025;-77
2022/09/10 05:54:45;;;;;;;2.35;0.77;;;;;;;16.76;100.00;100228.22;5208327;28;20055;-77
2022/09/10 05:57:16;;;;;;;3.05;0.88;;;;;;;16.82;100.00;100233.94;5209134;28;20087;-77
2022/09/10 05:59:47;;;;;;;3.97;1.08;;;;;;;17.12;100.00;100239.00;5194098;28;20549;-76
2022/09/10 06:02:18;;;;;;;3.30;0.70;;;;;;;17.20;100.00;100228.75;5208192;28;20064;-77
2022/09/10 06:04:49;;;;;;;5.90;1.02;;;;;;;17.30;100.00;100235.09;5176646;28;20143;-78
2022/09/10 06:07:19;;;;;;;1.77;0.52;;;;;;;17.43;100.00;100228.03;5207570;28;20033;-77
2022/09/10 06:09:50;;;;;;;2.72;0.70;;;;;;;17.44;100.00;100229.72;5207168;28;20029;-77
2022/09/10 06:12:20;;;;;;;2.75;0.65;;;;;;;17.55;100.00;100233.34;5202607;28;20028;-77
2022/09/10 06:14:51;;;;;;;6.57;0.95;;;;;;;17.40;100.00;100226.47;5203047;28;20461;-76
2022/09/10 06:17:21;;;;;;;2.25;0.60;;;;;;;17.46;100.00;100233.13;5204246;28;20052;-75
2022/09/10 06:19:52;;;;;;;2.63;0.70;;;;;;;17.37;100.00;100229.31;5206664;28;20021;-74
2022/09/10 06:22:22;;;;;;;2.67;0.80;;;;;;;17.46;100.00;100235.78;5193264;28;20021;-75
2022/09/10 06:24:54;;;;;;;3.35;0.73;;;;;;;17.45;100.00;100234.09;5206451;28;20399;-76
2022/09/10 06:27:25;;;;;;;3.70;0.93;;;;;;;17.37;100.00;100236.41;5201246;28;20068;-76
2022/09/10 06:29:55;;;;;;;4.63;0.70;;;;;;;17.52;100.00;100236.16;5210001;28;20021;-77
2022/09/10 06:32:25;;;;;;;3.42;1.00;;;;;;;17.55;100.00;100235.97;5206676;28;20021;-76
2022/09/10 06:34:56;;;;;;;3.42;0.75;;;;;;;17.74;100.00;100232.88;5206393;28;20024;-76
2022/09/10 06:37:26;;;;;;;5.47;1.25;;;;;;;17.74;100.00;100233.75;5204060;28;20398;-77
2022/09/10 06:39:57;;;;;;;2.83;0.70;;;;;;;17.75;100.00;100239.84;5205415;28;20096;-77
2022/09/10 06:42:27;;;;;;;2.80;0.80;;;;;;;17.80;100.00;100243.88;5209937;28;20017;-77
2022/09/10 06:44:59;;;;;;;2.88;0.75;;;;;;;17.83;100.00;100251.59;5210172;28;20399;-77
2022/09/10 06:47:29;;;;;;;2.47;0.50;;;;;;;17.79;100.00;100249.28;5209378;28;20028;-77
2022/09/10 06:49:59;;;;;;;4.28;0.98;;;;;;;17.94;100.00;100250.84;5206506;28;20035;-78
2022/09/10 06:52:30;;;;;;;2.45;0.70;;;;;;;18.29;100.00;100252.69;5206527;28;20071;-77
2022/09/10 06:55:00;;;;;;;3.13;0.70;;;;;;;18.45;100.00;100255.06;5208043;28;20389;-77
2022/09/10 06:57:30;;;;;;;2.50;0.70;;;;;;;18.10;100.00;100259.38;5202901;28;20029;-77
2022/09/10 07:00:01;;;;;;;3.17;0.80;;;;;;;18.29;98.97;100265.06;5205048;28;20438;-77
2022/09/10 07:02:31;;;;;;;3.75;0.90;;;;;;;18.06;98.83;100258.75;5203717;28;20280;-77
2022/09/10 07:05:01;;;;;;;4.13;0.80;;;;;;;18.17;97.16;100263.28;5209108;28;20493;-77
2022/09/10 07:07:32;;;;;;;3.20;0.68;;;;;;;17.93;99.39;100267.66;5203932;28;20032;-77
2022/09/10 07:10:02;;;;;;;4.20;0.60;;;;;;;18.09;100.00;100268.25;5205074;28;20067;-77
2022/09/10 07:12:33;;;;;;;4.40;0.90;;;;;;;17.78;100.00;100279.28;5209925;28;20048;-77
2022/09/10 07:15:04;;;;;;;5.25;0.80;;;;;;;17.81;100.00;100279.09;5208532;28;20037;-77
2022/09/10 07:17:35;;;;;;;3.53;0.63;;;;;;;17.84;100.00;100278.88;5206209;28;20024;-78
2022/09/10 07:20:05;;;;;;;4.65;0.80;;;;;;;17.80;100.00;100283.53;5207533;22;20046;-74
2022/09/10 07:22:36;;;;;;;3.05;0.68;;;;;;;17.69;100.00;100280.78;5199598;28;20461;-74
2022/09/10 07:25:07;;;;;;;4.75;0.80;;;;;;;18.28;100.00;100276.59;5181686;28;20058;-74
2022/09/10 07:27:37;;;;;;;3.63;0.73;;;;;;;18.13;100.00;100278.53;5198970;28;20026;-74
2022/09/10 07:30:08;;;;;;;3.38;0.70;;;;;;;17.89;100.00;100287.34;5203741;28;20040;-74
2022/09/10 07:32:42;;;;;;;4.10;0.93;;;;;;;18.01;100.00;100275.91;5187222;28;20119;-74
2022/09/10 07:35:12;;;;;;;3.38;0.82;;;;;;;18.09;100.00;100284.13;5203385;28;20026;-74
2022/09/10 07:37:44;;;;;;;5.00;0.75;;;;;;;18.35;100.00;100285.81;5186811;28;20487;-74
2022/09/10 07:40:15;;;;;;;2.65;0.60;;;;;;;18.08;100.00;100290.38;5206603;28;20120;-74
2022/09/10 07:42:45;;;;;;;5.55;1.65;;;;;;;18.06;100.00;100287.00;5209973;28;20032;-74
2022/09/10 07:45:15;;;;;;;2.58;0.70;;;;;;;18.28;100.00;100298.63;5208978;28;20277;-74
2022/09/10 07:47:49;;;;;;;4.07;0.93;;;;;;;18.45;98.42;100297.41;5207405;28;20115;-74
2022/09/10 07:50:19;;;;;;;2.72;0.63;;;;;;;18.45;99.62;100294.75;5208094;28;20348;-74
2022/09/10 07:52:50;;;;;;;3.50;0.88;;;;;;;18.66;99.37;100295.88;5207999;28;20032;-74
2022/09/10 07:55:22;;;;;;;4.55;0.90;;;;;;;18.70;98.13;100302.63;5211836;28;20031;-74
2022/09/10 07:57:54;;;;;;;3.33;0.70;;;;;;;18.39;98.84;100297.84;5189569;28;20033;-74
2022/09/10 08:00:24;;;;;;;1.95;0.70;;;;;;;18.47;100.00;100306.94;5207022;28;20025;-74
2022/09/10 08:02:55;;;;;;;3.33;0.80;;;;;;;18.58;99.71;100303.50;5209270;28;20474;-74
2022/09/10 08:05:27;;;;;;;3.20;0.73;;;;;;;18.82;97.15;100308.72;5208671;28;20061;-74
2022/09/10 08:07:58;;;;;;;3.97;0.80;;;;;;;18.62;96.59;100315.56;5202081;28;20028;-74
2022/09/10 08:10:28;;;;;;;2.40;0.70;;;;;;;18.48;97.94;100308.63;5205927;28;20025;-73
2022/09/10 08:12:58;;;;;;;4.88;0.82;;;;;;;18.27;100.00;100319.88;5211593;28;20024;-73
2022/09/10 08:15:29;;;;;;;3.53;0.90;;;;;;;18.39;99.20;100319.03;5211854;28;20134;-74
2022/09/10 08:17:59;;;;;;;4.13;1.08;;;;;;;18.57;97.67;100323.88;5190332;28;20580;-74
2022/09/10 08:20:29;;;;;;;4.13;1.05;;;;;;;18.86;95.08;100334.03;5210369;28;20474;-73
2022/09/10 08:23:01;;;;;;;4.47;1.33;;;;;;;19.16;92.79;100329.16;5208871;28;20438;-74
2022/09/10 08:25:32;;;;;;;3.03;0.77;;;;;;;19.34;91.84;100329.56;5210811;28;20025;-74
2022/09/10 08:28:02;;;;;;;1.77;0.50;;;;;;;19.34;92.91;100333.06;5208286;28;20041;-75
2022/09/10 08:30:32;;;;;;;3.20;0.63;;;;;;;19.28;90.48;100324.72;5209950;28;20029;-74
2022/09/10 08:33:03;;;;;;;2.30;0.77;;;;;;;19.78;90.79;100322.56;5209918;28;20044;-74
2022/09/10 08:35:33;;;;;;;2.05;0.70;;;;;;;20.05;89.91;100330.22;5208546;28;20032;-74
2022/09/10 08:38:04;;;;;;;2.13;0.70;;;;;;;21.18;85.75;100323.53;5211205;28;20100;-74
2022/09/10 08:40:39;;;;;;;2.25;0.60;;;;;;;22.20;81.12;100316.50;5210260;28;20139;-74
2022/09/10 08:43:11;;;;;;;;;;;;;;;21.58;80.75;100331.69;5211745;28;20022;-75
2022/09/10 08:45:47;;;;;;;5.68;0.90;;;;;;;21.97;80.23;100315.00;5209386;28;19940;-74
2022/09/10 08:48:21;;;;;;;3.70;0.80;;;;;;;22.84;77.10;100322.19;5209176;28;20169;-75
2022/09/10 08:51:17;;;;;;;3.80;1.17;;;;;;;22.67;78.82;100315.84;5206477;28;20108;-75
2022/09/10 08:53:55;;;;;;;;;;;;;;;22.89;77.03;100319.97;5192335;28;20020;-75
2022/09/10 08:56:26;;;;;;;4.25;0.70;;;;;;;21.96;80.60;100331.94;5201513;28;20337;-74
2022/09/10 08:59:04;;;;;;;3.42;0.80;;;;;;;21.81;80.87;100326.13;5206734;28;20035;-75
2022/09/10 09:01:40;;;;;;;1.92;0.50;;;;;;;22.42;78.22;100322.50;5208480;28;20514;-74
2022/09/10 09:04:15;;;;;;;;;;;;;;;23.01;78.15;100318.84;5208329;28;20024;-74
2022/09/10 09:06:57;;;;;;;2.67;0.60;;;;;;;23.31;75.45;100321.41;5209568;28;20404;-75
2022/09/10 09:09:28;;;;;;;4.38;1.08;;;;;;;22.90;75.49;100316.31;5196809;28;20029;-74
2022/09/10 09:12:26;;;;;;;5.10;0.90;;;;;;;22.41;75.94;100322.66;5194155;28;20021;-74
2022/09/10 09:14:59;;;;;;;4.35;0.60;;;;;;;22.33;75.46;100319.78;5204961;28;20295;-75
2022/09/10 09:18:02;;;;;;;5.25;0.82;;;;;;;22.81;75.60;100311.81;5206328;28;20110;-74
2022/09/10 09:20:55;;;;;;;2.42;0.70;;;;;;;23.20;73.63;100307.38;5201865;28;20075;-75
2022/09/10 09:23:50;;;;;;;4.28;0.70;;;;;;;23.48;73.11;100310.03;5207135;28;20099;-75
2022/09/10 09:26:28;;;;;;;1.52;0.50;;;;;;;23.90;71.87;100306.03;5204773;28;20397;-74
2022/09/10 09:29:05;;;;;;;3.15;0.50;;;;;;;23.73;71.08;100304.06;5197397;28;20433;-73
2022/09/10 09:31:48;;;;;;;3.92;1.00;;;;;;;24.08;71.13;100312.28;5203008;28;20525;-74
2022/09/10 09:34:45;;;;;;;3.05;0.90;;;;;;;23.99;70.28;100305.16;5203764;28;20367;-74
2022/09/10 09:37:23;;;;;;;3.28;0.88;;;;;;;24.31;70.34;100313.63;5203636;28;20028;-74
2022/09/10 09:39:58;;;;;;;2.70;0.93;;;;;;;23.66;70.08;100307.44;5203885;28;20055;-75
2022/09/10 09:42:58;;;;;;;4.43;1.03;;;;;;;24.14;70.39;100308.19;5188196;28;20025;-75
2022/09/10 09:45:36;;;;;;;4.00;1.10;;;;;;;23.38;70.75;100306.50;5193831;28;20454;-74
2022/09/10 09:48:11;;;;;;;2.40;0.70;;;;;;;23.45;70.20;100294.31;5207606;28;20029;-73
2022/09/10 09:50:45;;;;;;;5.20;0.77;;;;;;;22.99;69.85;100288.00;5209482;28;20084;-75
2022/09/10 09:53:24;;;;;;;2.35;0.60;;;;;;;23.35;72.21;100287.31;5207779;28;20033;-74
2022/09/10 09:55:58;;;;;;;3.13;0.73;;;;;;;23.35;72.50;100285.47;5203460;28;20029;-74
2022/09/10 09:58:32;;;;;;;3.88;0.70;;;;;;;23.30;71.87;100287.72;5208534;28;20056;-75
2022/09/10 10:01:02;;;;;;;2.60;0.82;;;;;;;23.35;73.30;100285.47;5189718;28;20453;-74
2022/09/10 10:04:01;;;;;;;4.07;0.90;;;;;;;22.75;73.24;100283.06;5208370;28;20327;-73
2022/09/10 10:06:43;;;;;;;4.18;0.80;;;;;;;22.90;75.95;100284.34;5196135;28;20509;-73
2022/09/10 10:09:20;;;;;;;2.83;0.50;;;;;;;22.99;74.20;100285.31;5208502;28;20347;-75
2022/09/10 10:11:54;;;;;;;1.63;0.35;;;;;;;22.94;74.49;100284.88;5196503;28;20209;-74
2022/09/10 10:14:44;;;;;;;2.10;0.43;;;;;;;22.62;71.66;100286.09;5197613;28;20663;-74
2022/09/10 10:17:37;;;;;;;2.97;0.65;;;;;;;22.69;73.42;100274.75;5198272;28;20064;-74
2022/09/10 10:20:15;;;;;;;1.38;0.38;;;;;;;22.82;73.74;100273.50;5200307;28;20033;-74
2022/09/10 10:22:47;;;;;;;2.38;0.40;;;;;;;22.24;71.81;100285.97;5199757;28;20039;-75
2022/09/10 10:25:40;;;;;;;2.38;0.52;;;;;;;22.43;73.20;100281.56;5200946;28;20170;-74
2022/09/10 10:28:19;;;;;;;2.65;0.40;;;;;;;22.33;74.52;100283.34;5199739;28;20199;-74
2022/09/10 10:30:58;;;;;;;1.42;0.40;;;;;;;22.45;74.59;100286.78;5204871;28;20056;-74
2022/09/10 10:33:32;;;;;;;2.15;0.40;;;;;;;22.45;75.03;100284.09;5188323;28;20033;-75
2022/09/10 10:36:21;;;;;;;2.42;0.50;;;;;;;22.61;76.15;100279.09;5207342;28;20041;-74
2022/09/10 10:39:09;;;;;;;1.75;0.30;;;;;;;22.75;78.83;100272.38;5206295;28;20562;-74
2022/09/10 10:42:04;;;;;;;2.72;0.70;;;;;;;22.08;74.32;100269.66;5207615;28;20473;-74
2022/09/10 10:45:03;;;;;;;2.10;0.50;;;;;;;21.76;76.52;100283.06;5199151;28;20029;-74
2022/09/10 10:47:50;;;;;;;1.95;0.70;;;;;;;22.04;73.57;100278.88;5201873;28;20041;-74
2022/09/10 10:50:35;;;;;;;1.27;0.38;;;;;;;22.47;73.90;100271.50;5204742;28;20052;-74
2022/09/10 10:53:05;;;;;;;2.77;0.40;;;;;;;22.56;71.92;100271.50;5200439;28;20060;-74
2022/09/10 10:55:55;;;;;;;0.63;0.20;;;;;;;22.59;71.92;100267.75;5199591;28;20033;-73
2022/09/10 10:58:47;;;;;;;1.55;0.40;;;;;;;22.37;74.01;100273.25;5181730;28;20148;-74
2022/09/10 11:01:28;;;;;;;1.85;0.35;;;;;;;22.70;74.11;100271.94;5200323;28;20036;-74
2022/09/10 11:04:25;;;;;;;1.30;0.47;;;;;;;22.89;75.15;100268.47;5198029;28;20633;-73
2022/09/10 11:07:12;;;;;;;1.42;0.30;;;;;;;23.33;75.09;100279.44;5199752;28;20120;-73
2022/09/10 11:09:50;;;;;;;2.53;0.47;;;;;;;23.11;73.79;100265.50;5198180;28;20034;-74
2022/09/10 11:12:34;;;;;;;2.55;0.60;;;;;;;22.85;72.32;100273.22;5195240;28;20060;-74
2022/09/10 11:15:33;;;;;;;1.13;0.30;;;;;;;22.93;71.78;100270.72;5199917;28;20029;-73
2022/09/10 11:18:06;;;;;;;0.88;0.30;;;;;;;23.08;69.94;100274.66;5198829;28;20030;-74
2022/09/10 11:20:53;;;;;;;1.02;0.20;;;;;;;22.60;73.53;100272.09;5204620;28;20707;-73
2022/09/10 11:23:38;;;;;;;0.85;0.40;;;;;;;22.15;76.89;100268.13;5202912;28;20124;-74
2022/09/10 11:26:16;;;;;;;1.63;0.33;;;;;;;21.82;78.26;100281.72;5196318;28;20046;-73
2022/09/10 11:29:19;;;;;;;0.98;0.30;;;;;;;21.66;79.33;100278.69;5199258;28;20819;-73
2022/09/10 11:32:02;;;;;;;0.52;0.30;;;;;;;21.68;77.17;100266.09;5202218;28;20119;-74
2022/09/10 11:35:02;;;;;;;0.98;0.35;;;;;;;22.23;76.99;100257.66;5203663;28;20041;-74
2022/09/10 11:37:45;;;;;;;1.42;0.50;;;;;;;22.53;74.53;100258.47;5204102;28;20032;-74
2022/09/10 11:40:29;;;;;;;0.55;0.20;;;;;;;22.06;73.85;100256.47;5211093;28;20028;-73
2022/09/10 11:43:06;;;;;;;1.95;0.40;;;;;;;22.15;75.81;100255.69;5198552;28;20061;-73
2022/09/10 11:46:00;;;;;;;0.60;0.30;;;;;;;22.58;74.37;100261.56;5209890;28;20029;-73
2022/09/10 11:48:36;;;;;;;1.83;0.40;;;;;;;23.09;76.07;100254.16;5203694;28;20041;-74
2022/09/10 11:51:18;;;;;;;0.80;0.35;;;;;;;23.35;74.80;100249.97;5210090;28;20136;-74
2022/09/10 11:53:48;;;;;;;2.47;0.43;;;;;;;23.23;73.79;100259.09;5208226;28;20368;-74
2022/09/10 11:56:48;;;;;;;2.13;0.40;;;;;;;23.12;73.60;100246.75;5210238;28;20083;-73
2022/09/10 11:59:27;;;;;;;1.60;0.40;;;;;;;23.03;72.80;100250.22;5210268;28;20037;-74
2022/09/10 12:02:49;;;;;;;0.80;0.30;;;;;;;22.85;73.71;100248.41;5205816;28;20430;-73